JAL692 RJFM-RJTT
Flight info
| Callsign | JAL692 |
|---|---|
| Flight time | N/A |
| Altitude | 30997 |
| Route | KIZAK3 MADOG M750 BILLY Y21 AKSEL |
| Aircraft | E190/M-SDE3GILORVW/S |
Departure
| Time | 2026-05-05 11:00 |
|---|---|
| Airport | Miyazaki Airport (RJFM) |
Arrival
| Time | N/A |
|---|---|
| Airport | Tokyo Haneda International Airport (RJTT) |
| Time | Latitude | Longitude | Altitude | Speed | Heading |
|---|---|---|---|---|---|
| 2026-05-05 10:54 | 31.87349 | 131.44075 | 29 ft | 0 kts | 175° |
| 2026-05-05 10:54 | 31.87348 | 131.44075 | 29 ft | 0 kts | 175° |
| 2026-05-05 10:55 | 31.87358 | 131.44075 | 29 ft | 2 kts | 175° |
| 2026-05-05 10:55 | 31.87373 | 131.44073 | 29 ft | 2 kts | 175° |
| 2026-05-05 10:55 | 31.87389 | 131.44072 | 29 ft | 2 kts | 175° |
| 2026-05-05 10:55 | 31.87403 | 131.44070 | 29 ft | 2 kts | 175° |
| 2026-05-05 10:56 | 31.87419 | 131.44069 | 29 ft | 2 kts | 175° |
| 2026-05-05 10:56 | 31.87434 | 131.44067 | 29 ft | 2 kts | 175° |
| 2026-05-05 10:56 | 31.87448 | 131.44066 | 29 ft | 2 kts | 175° |
| 2026-05-05 10:56 | 31.87464 | 131.44064 | 29 ft | 2 kts | 175° |
| 2026-05-05 10:57 | 31.87479 | 131.44064 | 29 ft | 2 kts | 202° |
| 2026-05-05 10:57 | 31.87488 | 131.44076 | 29 ft | 1 kts | 256° |
| 2026-05-05 10:57 | 31.87489 | 131.44084 | 29 ft | 0 kts | 266° |
| 2026-05-05 10:58 | 31.87489 | 131.44080 | 29 ft | 1 kts | 266° |
| 2026-05-05 10:58 | 31.87487 | 131.44052 | 29 ft | 4 kts | 264° |
| 2026-05-05 10:58 | 31.87474 | 131.43898 | 30 ft | 8 kts | 264° |
| 2026-05-05 10:59 | 31.87459 | 131.43558 | 30 ft | 11 kts | 292° |
| 2026-05-05 10:59 | 31.87535 | 131.43527 | 30 ft | 14 kts | 19° |
| 2026-05-05 10:59 | 31.87617 | 131.43602 | 30 ft | 16 kts | 78° |
| 2026-05-05 10:59 | 31.87622 | 131.43660 | 30 ft | 9 kts | 85° |
| 2026-05-05 11:00 | 31.87655 | 131.44109 | 29 ft | 100 kts | 85° |
| 2026-05-05 11:00 | 31.87736 | 131.45242 | 65 ft | 168 kts | 85° |
| 2026-05-05 11:00 | 31.87820 | 131.46666 | 708 ft | 184 kts | 92° |
| 2026-05-05 11:00 | 31.87311 | 131.48013 | 1710 ft | 185 kts | 133° |
| 2026-05-05 11:01 | 31.86366 | 131.49036 | 2496 ft | 195 kts | 136° |
| 2026-05-05 11:01 | 31.85310 | 131.50154 | 3164 ft | 214 kts | 136° |
| 2026-05-05 11:01 | 31.84141 | 131.51392 | 3771 ft | 237 kts | 136° |
| 2026-05-05 11:01 | 31.82857 | 131.52750 | 4420 ft | 258 kts | 137° |
| 2026-05-05 11:02 | 31.81550 | 131.54260 | 5303 ft | 267 kts | 123° |
| 2026-05-05 11:02 | 31.81008 | 131.56284 | 6241 ft | 271 kts | 89° |
| 2026-05-05 11:02 | 31.81566 | 131.58380 | 7190 ft | 276 kts | 55° |
| 2026-05-05 11:02 | 31.82978 | 131.59917 | 8066 ft | 283 kts | 39° |
| 2026-05-05 11:03 | 31.84266 | 131.61620 | 8825 ft | 285 kts | 67° |
| 2026-05-05 11:03 | 31.85040 | 131.63797 | 9626 ft | 291 kts | 69° |
| 2026-05-05 11:03 | 31.85859 | 131.65982 | 10433 ft | 296 kts | 68° |
| 2026-05-05 11:03 | 31.86733 | 131.68214 | 11169 ft | 303 kts | 67° |
| 2026-05-05 11:04 | 31.87639 | 131.70479 | 11797 ft | 313 kts | 67° |
| 2026-05-05 11:04 | 31.88592 | 131.72847 | 12362 ft | 326 kts | 67° |
| 2026-05-05 11:04 | 31.89579 | 131.75290 | 13006 ft | 334 kts | 67° |
| 2026-05-05 11:04 | 31.90550 | 131.77786 | 13730 ft | 339 kts | 70° |
| 2026-05-05 11:05 | 31.91444 | 131.80336 | 14438 ft | 344 kts | 69° |
| 2026-05-05 11:05 | 31.92370 | 131.82944 | 15092 ft | 350 kts | 69° |
| 2026-05-05 11:05 | 31.93324 | 131.85611 | 15739 ft | 356 kts | 68° |
| 2026-05-05 11:05 | 31.94299 | 131.88338 | 16357 ft | 362 kts | 68° |
| 2026-05-05 11:06 | 31.95287 | 131.91097 | 16957 ft | 369 kts | 68° |
| 2026-05-05 11:06 | 31.96275 | 131.93861 | 17526 ft | 375 kts | 68° |
| 2026-05-05 11:06 | 31.97298 | 131.96722 | 18092 ft | 382 kts | 68° |
| 2026-05-05 11:06 | 31.98338 | 131.99634 | 18644 ft | 388 kts | 68° |
| 2026-05-05 11:07 | 31.99385 | 132.02570 | 19188 ft | 395 kts | 68° |
| 2026-05-05 11:07 | 32.00451 | 132.05562 | 19678 ft | 402 kts | 68° |
| 2026-05-05 11:07 | 32.01536 | 132.08609 | 20185 ft | 409 kts | 68° |
| 2026-05-05 11:07 | 32.02646 | 132.11729 | 20704 ft | 415 kts | 68° |
| 2026-05-05 11:08 | 32.03765 | 132.14877 | 21208 ft | 421 kts | 68° |
| 2026-05-05 11:08 | 32.04894 | 132.18059 | 21685 ft | 428 kts | 68° |
| 2026-05-05 11:08 | 32.06043 | 132.21297 | 22138 ft | 434 kts | 68° |
| 2026-05-05 11:08 | 32.07225 | 132.24631 | 22633 ft | 439 kts | 68° |
| 2026-05-05 11:09 | 32.08396 | 132.27940 | 23121 ft | 443 kts | 68° |
| 2026-05-05 11:09 | 32.09590 | 132.31316 | 23631 ft | 448 kts | 68° |
| 2026-05-05 11:09 | 32.10775 | 132.34670 | 24085 ft | 453 kts | 68° |
| 2026-05-05 11:09 | 32.11998 | 132.38133 | 24528 ft | 458 kts | 68° |
| 2026-05-05 11:10 | 32.13312 | 132.41539 | 24958 ft | 463 kts | 62° |
| 2026-05-05 11:10 | 32.14761 | 132.44899 | 25390 ft | 468 kts | 62° |
| 2026-05-05 11:10 | 32.16224 | 132.48332 | 25840 ft | 472 kts | 63° |
| 2026-05-05 11:10 | 32.17717 | 132.51848 | 26242 ft | 477 kts | 63° |
| 2026-05-05 11:11 | 32.19208 | 132.55368 | 26674 ft | 481 kts | 62° |
| 2026-05-05 11:11 | 32.20694 | 132.58873 | 27053 ft | 486 kts | 63° |
| 2026-05-05 11:11 | 32.22212 | 132.62462 | 27447 ft | 491 kts | 63° |
| 2026-05-05 11:11 | 32.23736 | 132.66071 | 27817 ft | 496 kts | 63° |
| 2026-05-05 11:12 | 32.25270 | 132.69702 | 28178 ft | 501 kts | 64° |
| 2026-05-05 11:12 | 32.26821 | 132.73383 | 28567 ft | 504 kts | 63° |
| 2026-05-05 11:12 | 32.28407 | 132.77145 | 28908 ft | 509 kts | 64° |
| 2026-05-05 11:12 | 32.29975 | 132.80873 | 29240 ft | 513 kts | 64° |
| 2026-05-05 11:13 | 32.31570 | 132.84665 | 29607 ft | 517 kts | 64° |
| 2026-05-05 11:13 | 32.33147 | 132.88422 | 29996 ft | 519 kts | 63° |
| 2026-05-05 11:13 | 32.34775 | 132.92302 | 30318 ft | 524 kts | 64° |
| 2026-05-05 11:13 | 32.36395 | 132.96167 | 30682 ft | 527 kts | 64° |
| 2026-05-05 11:14 | 32.38008 | 133.00021 | 31000 ft | 531 kts | 64° |
| 2026-05-05 11:14 | 32.39630 | 133.03902 | 31157 ft | 528 kts | 64° |
| 2026-05-05 11:14 | 32.41259 | 133.07799 | 31188 ft | 538 kts | 64° |
| 2026-05-05 11:14 | 32.42929 | 133.11801 | 31185 ft | 549 kts | 64° |
| 2026-05-05 11:15 | 32.44647 | 133.15926 | 31190 ft | 559 kts | 64° |